sensor_id;sensor_type;location;lat;lon;timestamp;temperature;humidity
45329;DHT22;31063;48.356;10.896;2022-11-14T00:00:48;4.40;99.90
45329;DHT22;31063;48.356;10.896;2022-11-14T00:03:14;4.40;99.90
45329;DHT22;31063;48.356;10.896;2022-11-14T00:05:41;4.40;99.90
45329;DHT22;31063;48.356;10.896;2022-11-14T00:08:15;4.40;99.90
45329;DHT22;31063;48.356;10.896;2022-11-14T00:10:41;4.40;99.90
45329;DHT22;31063;48.356;10.896;2022-11-14T00:13:06;4.40;99.90
45329;DHT22;31063;48.356;10.896;2022-11-14T00:15:32;4.40;99.90
45329;DHT22;31063;48.356;10.896;2022-11-14T00:17:58;4.40;99.90
45329;DHT22;31063;48.356;10.896;2022-11-14T00:20:23;4.40;99.90
45329;DHT22;31063;48.356;10.896;2022-11-14T00:22:49;4.50;99.90
45329;DHT22;31063;48.356;10.896;2022-11-14T00:25:14;4.40;99.90
45329;DHT22;31063;48.356;10.896;2022-11-14T00:27:40;4.40;99.90
45329;DHT22;31063;48.356;10.896;2022-11-14T00:30:06;4.40;99.90
45329;DHT22;31063;48.356;10.896;2022-11-14T00:32:32;4.40;99.90
45329;DHT22;31063;48.356;10.896;2022-11-14T00:34:57;4.40;99.90
45329;DHT22;31063;48.356;10.896;2022-11-14T00:37:23;4.40;99.90
45329;DHT22;31063;48.356;10.896;2022-11-14T00:39:48;4.30;99.90
45329;DHT22;31063;48.356;10.896;2022-11-14T00:42:14;4.40;99.90
45329;DHT22;31063;48.356;10.896;2022-11-14T00:44:39;4.40;99.90
45329;DHT22;31063;48.356;10.896;2022-11-14T00:47:05;4.40;99.90
45329;DHT22;31063;48.356;10.896;2022-11-14T00:49:31;4.40;99.90
45329;DHT22;31063;48.356;10.896;2022-11-14T00:51:56;4.40;99.90
45329;DHT22;31063;48.356;10.896;2022-11-14T00:54:22;4.40;99.90
45329;DHT22;31063;48.356;10.896;2022-11-14T00:56:47;4.40;99.90
45329;DHT22;31063;48.356;10.896;2022-11-14T00:59:13;4.40;99.90
45329;DHT22;31063;48.356;10.896;2022-11-14T01:01:39;4.40;99.90
45329;DHT22;31063;48.356;10.896;2022-11-14T01:04:04;4.40;99.90
45329;DHT22;31063;48.356;10.896;2022-11-14T01:06:31;4.40;99.90
45329;DHT22;31063;48.356;10.896;2022-11-14T01:08:57;4.50;99.90
45329;DHT22;31063;48.356;10.896;2022-11-14T01:11:22;4.50;99.90
45329;DHT22;31063;48.356;10.896;2022-11-14T01:13:48;4.50;99.90
45329;DHT22;31063;48.356;10.896;2022-11-14T01:16:14;4.50;99.90
45329;DHT22;31063;48.356;10.896;2022-11-14T01:18:40;4.50;99.90
45329;DHT22;31063;48.356;10.896;2022-11-14T01:21:07;4.50;99.90
45329;DHT22;31063;48.356;10.896;2022-11-14T01:23:34;4.50;99.90
45329;DHT22;31063;48.356;10.896;2022-11-14T01:26:02;4.50;99.90
45329;DHT22;31063;48.356;10.896;2022-11-14T01:28:28;4.50;99.90
45329;DHT22;31063;48.356;10.896;2022-11-14T01:30:53;4.50;99.90
45329;DHT22;31063;48.356;10.896;2022-11-14T01:33:19;4.50;99.90
45329;DHT22;31063;48.356;10.896;2022-11-14T01:35:45;4.50;99.90
45329;DHT22;31063;48.356;10.896;2022-11-14T01:38:12;4.60;99.90
45329;DHT22;31063;48.356;10.896;2022-11-14T01:40:43;4.50;99.90
45329;DHT22;31063;48.356;10.896;2022-11-14T01:51:20;4.60;99.90
45329;DHT22;31063;48.356;10.896;2022-11-14T01:53:50;4.70;99.90
45329;DHT22;31063;48.356;10.896;2022-11-14T01:56:20;4.70;99.90
45329;DHT22;31063;48.356;10.896;2022-11-14T01:58:51;4.70;99.90
45329;DHT22;31063;48.356;10.896;2022-11-14T02:01:18;4.70;99.90
45329;DHT22;31063;48.356;10.896;2022-11-14T02:03:46;4.80;99.90
45329;DHT22;31063;48.356;10.896;2022-11-14T02:06:17;4.80;99.90
45329;DHT22;31063;48.356;10.896;2022-11-14T02:08:44;4.80;99.90
45329;DHT22;31063;48.356;10.896;2022-11-14T02:11:12;4.80;99.90
45329;DHT22;31063;48.356;10.896;2022-11-14T02:13:38;4.80;99.90
45329;DHT22;31063;48.356;10.896;2022-11-14T02:16:05;4.80;99.90
45329;DHT22;31063;48.356;10.896;2022-11-14T02:18:30;4.80;99.90
45329;DHT22;31063;48.356;10.896;2022-11-14T02:20:56;4.90;99.90
45329;DHT22;31063;48.356;10.896;2022-11-14T02:23:26;4.80;99.90
45329;DHT22;31063;48.356;10.896;2022-11-14T02:25:52;4.80;99.90
45329;DHT22;31063;48.356;10.896;2022-11-14T02:28:18;4.80;99.90
45329;DHT22;31063;48.356;10.896;2022-11-14T02:30:46;4.80;99.90
45329;DHT22;31063;48.356;10.896;2022-11-14T02:33:11;4.80;99.90
45329;DHT22;31063;48.356;10.896;2022-11-14T02:35:37;4.80;99.90
45329;DHT22;31063;48.356;10.896;2022-11-14T02:38:03;4.80;99.90
45329;DHT22;31063;48.356;10.896;2022-11-14T02:40:28;4.90;99.90
45329;DHT22;31063;48.356;10.896;2022-11-14T02:42:54;4.80;99.90
45329;DHT22;31063;48.356;10.896;2022-11-14T02:45:19;4.80;99.90
45329;DHT22;31063;48.356;10.896;2022-11-14T02:47:45;4.80;99.90
45329;DHT22;31063;48.356;10.896;2022-11-14T02:50:11;4.80;99.90
45329;DHT22;31063;48.356;10.896;2022-11-14T02:52:37;4.80;99.90
45329;DHT22;31063;48.356;10.896;2022-11-14T02:55:03;4.80;99.90
45329;DHT22;31063;48.356;10.896;2022-11-14T02:57:29;4.80;99.90
45329;DHT22;31063;48.356;10.896;2022-11-14T02:59:54;4.80;99.90
45329;DHT22;31063;48.356;10.896;2022-11-14T03:02:20;4.80;99.90
45329;DHT22;31063;48.356;10.896;2022-11-14T03:04:46;4.80;99.90
45329;DHT22;31063;48.356;10.896;2022-11-14T03:07:11;4.80;99.90
45329;DHT22;31063;48.356;10.896;2022-11-14T03:09:37;4.80;99.90
45329;DHT22;31063;48.356;10.896;2022-11-14T03:12:02;4.80;99.90
45329;DHT22;31063;48.356;10.896;2022-11-14T03:14:31;4.80;99.90
45329;DHT22;31063;48.356;10.896;2022-11-14T03:16:57;4.90;99.90
45329;DHT22;31063;48.356;10.896;2022-11-14T03:19:23;4.90;99.90
45329;DHT22;31063;48.356;10.896;2022-11-14T03:21:48;4.80;99.90
45329;DHT22;31063;48.356;10.896;2022-11-14T03:24:14;4.80;99.90
45329;DHT22;31063;48.356;10.896;2022-11-14T03:26:39;4.80;99.90
45329;DHT22;31063;48.356;10.896;2022-11-14T03:29:05;4.80;99.90
45329;DHT22;31063;48.356;10.896;2022-11-14T03:31:31;4.80;99.90
45329;DHT22;31063;48.356;10.896;2022-11-14T03:33:56;4.70;99.90
45329;DHT22;31063;48.356;10.896;2022-11-14T03:36:22;4.70;99.90
45329;DHT22;31063;48.356;10.896;2022-11-14T03:38:48;4.60;99.90
45329;DHT22;31063;48.356;10.896;2022-11-14T03:41:13;4.70;99.90
45329;DHT22;31063;48.356;10.896;2022-11-14T03:43:39;4.70;99.90
45329;DHT22;31063;48.356;10.896;2022-11-14T03:46:04;4.70;99.90
45329;DHT22;31063;48.356;10.896;2022-11-14T03:48:30;4.70;99.90
45329;DHT22;31063;48.356;10.896;2022-11-14T03:50:56;4.80;99.90
45329;DHT22;31063;48.356;10.896;2022-11-14T03:53:22;4.80;99.90
45329;DHT22;31063;48.356;10.896;2022-11-14T03:55:48;4.70;99.90
45329;DHT22;31063;48.356;10.896;2022-11-14T03:58:13;4.70;99.90
45329;DHT22;31063;48.356;10.896;2022-11-14T04:00:39;4.60;99.90
45329;DHT22;31063;48.356;10.896;2022-11-14T04:03:05;4.60;99.90
45329;DHT22;31063;48.356;10.896;2022-11-14T04:05:30;4.70;99.90
45329;DHT22;31063;48.356;10.896;2022-11-14T04:07:56;4.70;99.90
45329;DHT22;31063;48.356;10.896;2022-11-14T04:10:22;4.60;99.90
45329;DHT22;31063;48.356;10.896;2022-11-14T04:12:48;4.70;99.90
45329;DHT22;31063;48.356;10.896;2022-11-14T04:15:15;4.70;99.90
45329;DHT22;31063;48.356;10.896;2022-11-14T04:17:41;4.70;99.90
45329;DHT22;31063;48.356;10.896;2022-11-14T04:20:07;4.60;99.90
45329;DHT22;31063;48.356;10.896;2022-11-14T04:22:32;4.70;99.90
45329;DHT22;31063;48.356;10.896;2022-11-14T04:24:58;4.80;99.90
45329;DHT22;31063;48.356;10.896;2022-11-14T04:27:23;4.80;99.90
45329;DHT22;31063;48.356;10.896;2022-11-14T04:29:49;4.80;99.90
45329;DHT22;31063;48.356;10.896;2022-11-14T04:32:15;4.80;99.90
45329;DHT22;31063;48.356;10.896;2022-11-14T04:34:40;4.80;99.90
45329;DHT22;31063;48.356;10.896;2022-11-14T04:37:06;4.80;99.90
45329;DHT22;31063;48.356;10.896;2022-11-14T04:39:31;4.80;99.90
45329;DHT22;31063;48.356;10.896;2022-11-14T04:41:57;4.80;99.90
45329;DHT22;31063;48.356;10.896;2022-11-14T04:44:22;4.80;99.90
45329;DHT22;31063;48.356;10.896;2022-11-14T04:46:48;4.80;99.90
45329;DHT22;31063;48.356;10.896;2022-11-14T04:49:14;4.80;99.90
45329;DHT22;31063;48.356;10.896;2022-11-14T04:51:39;4.80;99.90
45329;DHT22;31063;48.356;10.896;2022-11-14T04:54:05;4.90;99.90
45329;DHT22;31063;48.356;10.896;2022-11-14T04:56:30;4.80;99.90
45329;DHT22;31063;48.356;10.896;2022-11-14T04:58:56;4.90;99.90
45329;DHT22;31063;48.356;10.896;2022-11-14T05:01:22;4.80;99.90
45329;DHT22;31063;48.356;10.896;2022-11-14T05:03:47;4.80;99.90
45329;DHT22;31063;48.356;10.896;2022-11-14T05:06:13;5.00;99.90
45329;DHT22;31063;48.356;10.896;2022-11-14T05:08:39;4.80;99.90
45329;DHT22;31063;48.356;10.896;2022-11-14T05:11:04;4.80;99.90
45329;DHT22;31063;48.356;10.896;2022-11-14T05:13:30;4.80;99.90
45329;DHT22;31063;48.356;10.896;2022-11-14T05:15:59;4.80;99.90
45329;DHT22;31063;48.356;10.896;2022-11-14T05:18:25;4.80;99.90
45329;DHT22;31063;48.356;10.896;2022-11-14T05:20:51;4.70;99.90
45329;DHT22;31063;48.356;10.896;2022-11-14T05:23:21;4.80;99.90
45329;DHT22;31063;48.356;10.896;2022-11-14T05:26:08;4.70;99.90
45329;DHT22;31063;48.356;10.896;2022-11-14T05:28:34;4.80;99.90
45329;DHT22;31063;48.356;10.896;2022-11-14T05:31:01;4.80;99.90
45329;DHT22;31063;48.356;10.896;2022-11-14T05:33:27;4.70;99.90
45329;DHT22;31063;48.356;10.896;2022-11-14T05:35:53;4.80;99.90
45329;DHT22;31063;48.356;10.896;2022-11-14T05:38:18;4.80;99.90
45329;DHT22;31063;48.356;10.896;2022-11-14T05:40:44;4.70;99.90
45329;DHT22;31063;48.356;10.896;2022-11-14T05:43:10;4.70;99.90
45329;DHT22;31063;48.356;10.896;2022-11-14T05:45:35;4.80;99.90
45329;DHT22;31063;48.356;10.896;2022-11-14T05:48:01;4.70;99.90
45329;DHT22;31063;48.356;10.896;2022-11-14T05:50:26;4.80;99.90
45329;DHT22;31063;48.356;10.896;2022-11-14T05:52:52;4.60;99.90
45329;DHT22;31063;48.356;10.896;2022-11-14T05:55:17;4.70;99.90
45329;DHT22;31063;48.356;10.896;2022-11-14T05:57:43;4.70;99.90
45329;DHT22;31063;48.356;10.896;2022-11-14T06:00:09;4.70;99.90
45329;DHT22;31063;48.356;10.896;2022-11-14T06:02:35;4.80;99.90
45329;DHT22;31063;48.356;10.896;2022-11-14T06:05:00;4.80;99.90
45329;DHT22;31063;48.356;10.896;2022-11-14T06:07:26;4.70;99.90
45329;DHT22;31063;48.356;10.896;2022-11-14T06:09:51;4.80;99.90
45329;DHT22;31063;48.356;10.896;2022-11-14T06:12:17;4.80;99.90
45329;DHT22;31063;48.356;10.896;2022-11-14T06:14:43;4.70;99.90
45329;DHT22;31063;48.356;10.896;2022-11-14T06:17:08;4.70;99.90
45329;DHT22;31063;48.356;10.896;2022-11-14T06:19:34;4.80;99.90
45329;DHT22;31063;48.356;10.896;2022-11-14T06:21:59;4.60;99.90
45329;DHT22;31063;48.356;10.896;2022-11-14T06:24:25;4.70;99.90
45329;DHT22;31063;48.356;10.896;2022-11-14T06:26:51;4.60;99.90
45329;DHT22;31063;48.356;10.896;2022-11-14T06:29:16;4.50;99.90
45329;DHT22;31063;48.356;10.896;2022-11-14T06:31:42;4.50;99.90
45329;DHT22;31063;48.356;10.896;2022-11-14T06:34:09;4.50;99.90
45329;DHT22;31063;48.356;10.896;2022-11-14T06:36:34;4.50;99.90
45329;DHT22;31063;48.356;10.896;2022-11-14T06:39:00;4.40;99.90
45329;DHT22;31063;48.356;10.896;2022-11-14T06:41:25;4.40;99.90
45329;DHT22;31063;48.356;10.896;2022-11-14T06:43:51;4.30;99.90
45329;DHT22;31063;48.356;10.896;2022-11-14T06:46:19;4.30;99.90
45329;DHT22;31063;48.356;10.896;2022-11-14T06:48:46;4.30;99.90
45329;DHT22;31063;48.356;10.896;2022-11-14T06:51:13;4.20;99.90
45329;DHT22;31063;48.356;10.896;2022-11-14T06:53:40;4.20;99.90
45329;DHT22;31063;48.356;10.896;2022-11-14T06:56:15;4.20;99.90
45329;DHT22;31063;48.356;10.896;2022-11-14T06:58:47;4.20;99.90
45329;DHT22;31063;48.356;10.896;2022-11-14T07:01:15;4.20;99.90
45329;DHT22;31063;48.356;10.896;2022-11-14T07:03:41;4.30;99.90
45329;DHT22;31063;48.356;10.896;2022-11-14T07:06:08;4.20;99.90
45329;DHT22;31063;48.356;10.896;2022-11-14T07:08:34;4.30;99.90
45329;DHT22;31063;48.356;10.896;2022-11-14T07:11:21;4.20;99.90
45329;DHT22;31063;48.356;10.896;2022-11-14T07:13:52;4.20;99.90
45329;DHT22;31063;48.356;10.896;2022-11-14T07:16:19;4.20;99.90
45329;DHT22;31063;48.356;10.896;2022-11-14T07:18:44;4.20;99.90
45329;DHT22;31063;48.356;10.896;2022-11-14T07:21:10;4.20;99.90
45329;DHT22;31063;48.356;10.896;2022-11-14T07:23:39;4.20;99.90
45329;DHT22;31063;48.356;10.896;2022-11-14T07:26:06;4.20;99.90
45329;DHT22;31063;48.356;10.896;2022-11-14T07:28:37;4.10;99.90
45329;DHT22;31063;48.356;10.896;2022-11-14T07:31:07;4.20;99.90
45329;DHT22;31063;48.356;10.896;2022-11-14T07:33:33;4.10;99.90
45329;DHT22;31063;48.356;10.896;2022-11-14T07:35:59;4.20;99.90
45329;DHT22;31063;48.356;10.896;2022-11-14T07:38:25;4.10;99.90
45329;DHT22;31063;48.356;10.896;2022-11-14T07:40:58;4.20;99.90
45329;DHT22;31063;48.356;10.896;2022-11-14T07:43:24;4.20;99.90
45329;DHT22;31063;48.356;10.896;2022-11-14T07:45:50;4.20;99.90
45329;DHT22;31063;48.356;10.896;2022-11-14T07:48:16;4.30;99.90
45329;DHT22;31063;48.356;10.896;2022-11-14T07:50:42;4.30;99.90
45329;DHT22;31063;48.356;10.896;2022-11-14T07:53:08;4.30;99.90
45329;DHT22;31063;48.356;10.896;2022-11-14T07:55:37;4.30;99.90
45329;DHT22;31063;48.356;10.896;2022-11-14T07:58:03;4.30;99.90
45329;DHT22;31063;48.356;10.896;2022-11-14T08:00:29;4.30;99.90
45329;DHT22;31063;48.356;10.896;2022-11-14T08:02:55;4.40;99.90
45329;DHT22;31063;48.356;10.896;2022-11-14T08:05:20;4.40;99.90
45329;DHT22;31063;48.356;10.896;2022-11-14T08:07:49;4.40;99.90
45329;DHT22;31063;48.356;10.896;2022-11-14T08:10:14;4.40;99.90
45329;DHT22;31063;48.356;10.896;2022-11-14T08:12:40;4.40;99.90
45329;DHT22;31063;48.356;10.896;2022-11-14T08:15:07;4.40;99.90
45329;DHT22;31063;48.356;10.896;2022-11-14T08:17:33;4.50;99.90
45329;DHT22;31063;48.356;10.896;2022-11-14T08:19:58;4.50;99.90
45329;DHT22;31063;48.356;10.896;2022-11-14T08:22:24;4.60;99.90
45329;DHT22;31063;48.356;10.896;2022-11-14T08:24:50;4.70;99.90
45329;DHT22;31063;48.356;10.896;2022-11-14T08:27:15;4.70;99.90
45329;DHT22;31063;48.356;10.896;2022-11-14T08:29:41;4.70;99.90
45329;DHT22;31063;48.356;10.896;2022-11-14T08:32:06;4.80;99.90
45329;DHT22;31063;48.356;10.896;2022-11-14T08:34:32;4.90;99.90
45329;DHT22;31063;48.356;10.896;2022-11-14T08:36:58;5.00;99.90
45329;DHT22;31063;48.356;10.896;2022-11-14T08:39:23;4.90;99.90
45329;DHT22;31063;48.356;10.896;2022-11-14T08:41:49;5.00;99.90
45329;DHT22;31063;48.356;10.896;2022-11-14T08:44:15;5.00;99.90
45329;DHT22;31063;48.356;10.896;2022-11-14T08:46:40;5.10;99.90
45329;DHT22;31063;48.356;10.896;2022-11-14T08:49:06;5.10;99.90
45329;DHT22;31063;48.356;10.896;2022-11-14T08:51:31;5.10;99.90
45329;DHT22;31063;48.356;10.896;2022-11-14T08:53:57;5.20;99.90
45329;DHT22;31063;48.356;10.896;2022-11-14T08:56:23;5.30;99.90
45329;DHT22;31063;48.356;10.896;2022-11-14T08:58:48;5.20;99.90
45329;DHT22;31063;48.356;10.896;2022-11-14T09:01:14;5.20;99.90
45329;DHT22;31063;48.356;10.896;2022-11-14T09:03:39;5.20;99.90
45329;DHT22;31063;48.356;10.896;2022-11-14T09:06:05;5.20;99.90
45329;DHT22;31063;48.356;10.896;2022-11-14T09:08:31;5.30;99.90
45329;DHT22;31063;48.356;10.896;2022-11-14T09:11:00;5.30;99.90
45329;DHT22;31063;48.356;10.896;2022-11-14T09:13:27;5.30;99.90
45329;DHT22;31063;48.356;10.896;2022-11-14T09:15:52;5.50;99.90
45329;DHT22;31063;48.356;10.896;2022-11-14T09:18:18;5.60;99.90
45329;DHT22;31063;48.356;10.896;2022-11-14T09:20:43;5.70;99.90
45329;DHT22;31063;48.356;10.896;2022-11-14T09:23:10;5.70;99.90
45329;DHT22;31063;48.356;10.896;2022-11-14T09:25:35;5.80;99.90
45329;DHT22;31063;48.356;10.896;2022-11-14T09:28:05;5.90;99.90
45329;DHT22;31063;48.356;10.896;2022-11-14T09:30:32;5.90;99.90
45329;DHT22;31063;48.356;10.896;2022-11-14T09:32:59;6.00;99.90
45329;DHT22;31063;48.356;10.896;2022-11-14T09:35:26;6.00;99.90
45329;DHT22;31063;48.356;10.896;2022-11-14T09:38:03;6.00;99.90
45329;DHT22;31063;48.356;10.896;2022-11-14T09:40:32;6.00;99.90
45329;DHT22;31063;48.356;10.896;2022-11-14T09:45:50;5.90;99.90
45329;DHT22;31063;48.356;10.896;2022-11-14T09:48:20;5.90;99.90
45329;DHT22;31063;48.356;10.896;2022-11-14T09:51:24;5.90;99.90
45329;DHT22;31063;48.356;10.896;2022-11-14T09:54:15;6.00;99.90
45329;DHT22;31063;48.356;10.896;2022-11-14T09:56:37;6.00;99.90
45329;DHT22;31063;48.356;10.896;2022-11-14T09:59:02;6.00;99.90
45329;DHT22;31063;48.356;10.896;2022-11-14T10:01:56;6.10;99.90
45329;DHT22;31063;48.356;10.896;2022-11-14T10:10:35;6.30;99.90
45329;DHT22;31063;48.356;10.896;2022-11-14T10:13:01;6.40;99.90
45329;DHT22;31063;48.356;10.896;2022-11-14T10:16:09;6.50;99.90
45329;DHT22;31063;48.356;10.896;2022-11-14T10:27:06;7.00;99.90
45329;DHT22;31063;48.356;10.896;2022-11-14T10:40:54;7.30;99.90
45329;DHT22;31063;48.356;10.896;2022-11-14T10:43:24;7.40;99.90
45329;DHT22;31063;48.356;10.896;2022-11-14T10:46:15;7.50;99.90
45329;DHT22;31063;48.356;10.896;2022-11-14T10:48:44;7.50;99.90
45329;DHT22;31063;48.356;10.896;2022-11-14T10:51:31;7.60;99.90
45329;DHT22;31063;48.356;10.896;2022-11-14T10:54:22;7.70;99.90
45329;DHT22;31063;48.356;10.896;2022-11-14T10:56:51;7.80;99.90
45329;DHT22;31063;48.356;10.896;2022-11-14T10:59:18;7.80;99.90
45329;DHT22;31063;48.356;10.896;2022-11-14T11:04:31;8.00;99.90
45329;DHT22;31063;48.356;10.896;2022-11-14T11:09:33;8.10;99.90
45329;DHT22;31063;48.356;10.896;2022-11-14T11:12:20;8.20;99.90
45329;DHT22;31063;48.356;10.896;2022-11-14T11:14:48;8.30;99.90
45329;DHT22;31063;48.356;10.896;2022-11-14T11:17:20;8.40;99.90
45329;DHT22;31063;48.356;10.896;2022-11-14T11:19:47;8.50;99.90
45329;DHT22;31063;48.356;10.896;2022-11-14T11:22:36;8.60;99.90
45329;DHT22;31063;48.356;10.896;2022-11-14T11:25:26;8.70;99.90
45329;DHT22;31063;48.356;10.896;2022-11-14T11:28:06;8.70;99.90
45329;DHT22;31063;48.356;10.896;2022-11-14T11:30:32;8.80;99.90
45329;DHT22;31063;48.356;10.896;2022-11-14T11:33:29;8.90;99.90
45329;DHT22;31063;48.356;10.896;2022-11-14T11:35:56;8.90;99.90
45329;DHT22;31063;48.356;10.896;2022-11-14T11:38:25;9.10;99.90
45329;DHT22;31063;48.356;10.896;2022-11-14T11:41:00;9.10;99.90
45329;DHT22;31063;48.356;10.896;2022-11-14T11:43:49;9.20;99.90
45329;DHT22;31063;48.356;10.896;2022-11-14T11:49:16;9.60;99.90
45329;DHT22;31063;48.356;10.896;2022-11-14T11:51:42;9.70;99.90
45329;DHT22;31063;48.356;10.896;2022-11-14T11:54:28;9.90;99.90
45329;DHT22;31063;48.356;10.896;2022-11-14T11:56:58;10.00;99.90
45329;DHT22;31063;48.356;10.896;2022-11-14T11:59:36;10.00;99.90
45329;DHT22;31063;48.356;10.896;2022-11-14T12:04:44;10.30;99.90
45329;DHT22;31063;48.356;10.896;2022-11-14T12:07:14;10.30;99.90
45329;DHT22;31063;48.356;10.896;2022-11-14T12:09:41;10.40;99.90
45329;DHT22;31063;48.356;10.896;2022-11-14T12:12:20;10.50;99.90
45329;DHT22;31063;48.356;10.896;2022-11-14T12:31:15;11.10;99.90
45329;DHT22;31063;48.356;10.896;2022-11-14T12:33:52;11.10;99.90
45329;DHT22;31063;48.356;10.896;2022-11-14T12:36:30;11.20;99.90
45329;DHT22;31063;48.356;10.896;2022-11-14T12:38:57;11.20;99.90
45329;DHT22;31063;48.356;10.896;2022-11-14T12:41:29;11.20;99.90
45329;DHT22;31063;48.356;10.896;2022-11-14T12:47:19;11.20;99.90
45329;DHT22;31063;48.356;10.896;2022-11-14T13:00:16;11.30;99.90
45329;DHT22;31063;48.356;10.896;2022-11-14T13:03:04;11.30;99.90
45329;DHT22;31063;48.356;10.896;2022-11-14T13:06:00;11.30;99.90
45329;DHT22;31063;48.356;10.896;2022-11-14T13:10:53;11.30;99.90
45329;DHT22;31063;48.356;10.896;2022-11-14T13:13:19;11.20;99.90
45329;DHT22;31063;48.356;10.896;2022-11-14T13:16:03;11.20;99.90
45329;DHT22;31063;48.356;10.896;2022-11-14T13:27:29;11.30;99.90
45329;DHT22;31063;48.356;10.896;2022-11-14T13:29:55;11.40;99.90
45329;DHT22;31063;48.356;10.896;2022-11-14T13:43:20;11.20;99.90
45329;DHT22;31063;48.356;10.896;2022-11-14T13:51:16;11.10;99.90
45329;DHT22;31063;48.356;10.896;2022-11-14T13:53:42;11.10;99.90
45329;DHT22;31063;48.356;10.896;2022-11-14T13:56:40;11.10;99.90
45329;DHT22;31063;48.356;10.896;2022-11-14T13:59:36;11.10;99.90
45329;DHT22;31063;48.356;10.896;2022-11-14T14:17:26;11.00;99.90
45329;DHT22;31063;48.356;10.896;2022-11-14T14:20:35;11.00;99.90
45329;DHT22;31063;48.356;10.896;2022-11-14T14:31:18;10.90;99.90
45329;DHT22;31063;48.356;10.896;2022-11-14T14:33:45;10.90;99.90
45329;DHT22;31063;48.356;10.896;2022-11-14T14:38:43;10.80;99.90
45329;DHT22;31063;48.356;10.896;2022-11-14T14:41:10;10.80;99.90
45329;DHT22;31063;48.356;10.896;2022-11-14T14:43:40;10.80;99.90
45329;DHT22;31063;48.356;10.896;2022-11-14T14:46:06;10.80;99.90
45329;DHT22;31063;48.356;10.896;2022-11-14T14:48:35;10.80;99.90
45329;DHT22;31063;48.356;10.896;2022-11-14T14:51:03;10.80;99.90
45329;DHT22;31063;48.356;10.896;2022-11-14T14:53:33;10.80;99.90
45329;DHT22;31063;48.356;10.896;2022-11-14T14:56:02;10.80;99.90
45329;DHT22;31063;48.356;10.896;2022-11-14T14:58:32;10.80;99.90
45329;DHT22;31063;48.356;10.896;2022-11-14T15:01:08;10.80;99.90
45329;DHT22;31063;48.356;10.896;2022-11-14T15:03:39;10.70;99.90
45329;DHT22;31063;48.356;10.896;2022-11-14T15:06:33;10.80;99.90
45329;DHT22;31063;48.356;10.896;2022-11-14T15:11:51;10.70;99.90
45329;DHT22;31063;48.356;10.896;2022-11-14T15:14:30;10.70;99.90
45329;DHT22;31063;48.356;10.896;2022-11-14T15:16:57;10.70;99.90
45329;DHT22;31063;48.356;10.896;2022-11-14T15:19:27;10.80;99.90
45329;DHT22;31063;48.356;10.896;2022-11-14T15:22:04;10.80;99.90
45329;DHT22;31063;48.356;10.896;2022-11-14T15:24:29;10.80;99.90
45329;DHT22;31063;48.356;10.896;2022-11-14T15:26:56;10.80;99.90
45329;DHT22;31063;48.356;10.896;2022-11-14T15:29:26;10.80;99.90
45329;DHT22;31063;48.356;10.896;2022-11-14T15:32:03;10.70;99.90
45329;DHT22;31063;48.356;10.896;2022-11-14T15:34:34;10.70;99.90
45329;DHT22;31063;48.356;10.896;2022-11-14T15:39:35;10.70;99.90
45329;DHT22;31063;48.356;10.896;2022-11-14T15:42:31;10.60;99.90
45329;DHT22;31063;48.356;10.896;2022-11-14T15:44:56;10.60;99.90
45329;DHT22;31063;48.356;10.896;2022-11-14T15:50:03;10.50;99.90
45329;DHT22;31063;48.356;10.896;2022-11-14T15:52:34;10.50;99.90
45329;DHT22;31063;48.356;10.896;2022-11-14T15:55:00;10.40;99.90
45329;DHT22;31063;48.356;10.896;2022-11-14T15:57:26;10.40;99.90
45329;DHT22;31063;48.356;10.896;2022-11-14T15:59:52;10.40;99.90
45329;DHT22;31063;48.356;10.896;2022-11-14T16:02:27;10.30;99.90
45329;DHT22;31063;48.356;10.896;2022-11-14T16:04:54;10.30;99.90
45329;DHT22;31063;48.356;10.896;2022-11-14T16:07:20;10.20;99.90
45329;DHT22;31063;48.356;10.896;2022-11-14T16:09:46;10.20;99.90
45329;DHT22;31063;48.356;10.896;2022-11-14T16:12:12;10.20;99.90
45329;DHT22;31063;48.356;10.896;2022-11-14T16:14:37;10.20;99.90
45329;DHT22;31063;48.356;10.896;2022-11-14T16:17:04;10.10;99.90
45329;DHT22;31063;48.356;10.896;2022-11-14T16:19:30;10.20;99.90
45329;DHT22;31063;48.356;10.896;2022-11-14T16:21:59;10.10;99.90
45329;DHT22;31063;48.356;10.896;2022-11-14T16:24:28;10.00;99.90
45329;DHT22;31063;48.356;10.896;2022-11-14T16:26:54;10.00;99.90
45329;DHT22;31063;48.356;10.896;2022-11-14T16:29:22;10.00;99.90
45329;DHT22;31063;48.356;10.896;2022-11-14T16:31:48;10.00;99.90
45329;DHT22;31063;48.356;10.896;2022-11-14T16:34:21;9.90;99.90
45329;DHT22;31063;48.356;10.896;2022-11-14T16:36:47;9.80;99.90
45329;DHT22;31063;48.356;10.896;2022-11-14T16:39:13;9.80;99.90
45329;DHT22;31063;48.356;10.896;2022-11-14T16:41:40;9.80;99.90
45329;DHT22;31063;48.356;10.896;2022-11-14T16:44:12;9.70;99.90
45329;DHT22;31063;48.356;10.896;2022-11-14T16:46:38;9.70;99.90
45329;DHT22;31063;48.356;10.896;2022-11-14T16:49:04;9.70;99.90
45329;DHT22;31063;48.356;10.896;2022-11-14T16:51:30;9.60;99.90
45329;DHT22;31063;48.356;10.896;2022-11-14T16:53:55;9.60;99.90
45329;DHT22;31063;48.356;10.896;2022-11-14T16:56:21;9.60;99.90
45329;DHT22;31063;48.356;10.896;2022-11-14T16:58:46;9.60;99.90
45329;DHT22;31063;48.356;10.896;2022-11-14T17:01:15;9.50;99.90
45329;DHT22;31063;48.356;10.896;2022-11-14T17:03:41;9.40;99.90
45329;DHT22;31063;48.356;10.896;2022-11-14T17:06:07;9.50;99.90
45329;DHT22;31063;48.356;10.896;2022-11-14T17:08:35;9.40;99.90
45329;DHT22;31063;48.356;10.896;2022-11-14T17:11:05;9.40;99.90
45329;DHT22;31063;48.356;10.896;2022-11-14T17:13:31;9.40;99.90
45329;DHT22;31063;48.356;10.896;2022-11-14T17:16:00;9.30;99.90
45329;DHT22;31063;48.356;10.896;2022-11-14T17:18:26;9.30;99.90
45329;DHT22;31063;48.356;10.896;2022-11-14T17:20:51;9.30;99.90
45329;DHT22;31063;48.356;10.896;2022-11-14T17:23:18;9.30;99.90
45329;DHT22;31063;48.356;10.896;2022-11-14T17:25:43;9.30;99.90
45329;DHT22;31063;48.356;10.896;2022-11-14T17:28:09;9.20;99.90
45329;DHT22;31063;48.356;10.896;2022-11-14T17:30:39;9.20;99.90
45329;DHT22;31063;48.356;10.896;2022-11-14T17:33:05;9.20;99.90
45329;DHT22;31063;48.356;10.896;2022-11-14T17:35:33;9.10;99.90
45329;DHT22;31063;48.356;10.896;2022-11-14T17:37:58;9.10;99.90
45329;DHT22;31063;48.356;10.896;2022-11-14T17:40:24;9.00;99.90
45329;DHT22;31063;48.356;10.896;2022-11-14T17:42:50;9.00;99.90
45329;DHT22;31063;48.356;10.896;2022-11-14T17:45:16;9.00;99.90
45329;DHT22;31063;48.356;10.896;2022-11-14T17:47:42;9.00;99.90
45329;DHT22;31063;48.356;10.896;2022-11-14T17:50:08;8.90;99.90
45329;DHT22;31063;48.356;10.896;2022-11-14T17:52:34;8.90;99.90
45329;DHT22;31063;48.356;10.896;2022-11-14T17:54:59;8.90;99.90